Time;durP1;ratioP1;P1;durP2;ratioP2;P2;SDS_P1;SDS_P2;PMS_P1;PMS_P2;Temp;Humidity;BMP_temperature;BMP_pressure;BME280_temperature;BME280_humidity;BME280_pressure;Samples;Min_cycle;Max_cycle;Signal;HPM_P1;HPM_P2
2021/10/07 00:02:07;;;;;;;0.30;0.30;;;;;;;11.14;96.32;101283.75;5084977;28;20029;-69
2021/10/07 00:04:32;;;;;;;0.30;0.30;;;;;;;11.10;96.46;101285.47;5084712;28;20024;-68
2021/10/07 00:06:58;;;;;;;0.30;0.30;;;;;;;11.15;96.26;101286.34;5066437;28;20067;-68
2021/10/07 00:09:24;;;;;;;1.15;1.13;;;;;;;11.13;96.43;101289.81;5084647;28;20088;-69
2021/10/07 00:11:50;;;;;;;0.30;0.30;;;;;;;11.12;96.03;101286.34;5084916;28;20029;-69
2021/10/07 00:14:15;;;;;;;0.30;0.30;;;;;;;11.10;96.11;101293.25;5084560;28;20108;-69
2021/10/07 00:16:41;;;;;;;0.30;0.30;;;;;;;11.13;96.32;101300.22;5084854;28;20028;-69
2021/10/07 00:19:07;;;;;;;0.40;0.40;;;;;;;11.10;96.12;101298.47;5085073;28;20016;-69
2021/10/07 00:21:32;;;;;;;0.30;0.30;;;;;;;11.10;96.27;101303.66;5084523;28;20567;-69
2021/10/07 00:24:07;;;;;;;0.30;0.30;;;;;;;11.09;96.40;101307.13;5084303;28;20024;-68
2021/10/07 00:26:39;;;;;;;0.30;0.30;;;;;;;11.08;95.96;101307.13;5085481;28;20092;-67
2021/10/07 00:31:54;;;;;;;0.32;0.32;;;;;;;11.05;96.36;101305.41;5085015;28;20047;-67
2021/10/07 00:39:10;;;;;;;0.32;0.32;;;;;;;11.19;96.21;101313.25;5084243;28;20025;-69
2021/10/07 00:41:41;;;;;;;0.20;0.20;;;;;;;11.26;96.54;101314.13;5084339;28;20028;-68
2021/10/07 00:44:08;;;;;;;0.40;0.40;;;;;;;11.28;96.44;101322.78;5099730;28;20088;-69
2021/10/07 00:46:55;;;;;;;0.30;0.30;;;;;;;11.32;96.54;101314.16;5084092;28;20028;-70
2021/10/07 00:49:22;;;;;;;0.30;0.30;;;;;;;11.33;96.34;101305.47;5066163;28;20024;-69
2021/10/07 00:51:48;;;;;;;0.22;0.22;;;;;;;11.36;96.31;101312.41;5083973;28;20077;-68
2021/10/07 00:54:16;;;;;;;0.30;0.30;;;;;;;11.28;96.13;101320.19;5084010;28;20610;-68
2021/10/07 00:56:43;;;;;;;0.30;0.30;;;;;;;11.25;96.22;101330.56;5083939;28;20028;-69
2021/10/07 00:59:08;;;;;;;0.30;0.30;;;;;;;11.23;96.05;101340.13;5083892;28;20063;-69
2021/10/07 01:01:34;;;;;;;0.30;0.30;;;;;;;11.17;96.33;101327.94;5083857;28;20025;-69
2021/10/07 01:03:59;;;;;;;0.55;0.55;;;;;;;11.17;96.30;101329.69;5083713;28;20063;-69
2021/10/07 01:06:25;;;;;;;0.30;0.30;;;;;;;11.13;96.30;101337.44;5083982;28;20025;-69
2021/10/07 01:08:51;;;;;;;1.48;1.48;;;;;;;11.08;96.25;101327.91;5083794;28;20025;-69
2021/10/07 01:11:16;;;;;;;0.30;0.30;;;;;;;11.07;96.58;101327.03;5083811;28;20025;-70
2021/10/07 01:13:41;;;;;;;0.30;0.30;;;;;;;11.05;96.27;101323.59;5083625;28;20020;-69
2021/10/07 01:16:08;;;;;;;0.30;0.30;;;;;;;11.02;96.45;101332.22;5083287;28;20028;-69
2021/10/07 01:18:34;;;;;;;0.90;0.90;;;;;;;11.00;96.52;101325.28;5082747;28;20050;-69
2021/10/07 01:20:59;;;;;;;0.50;0.50;;;;;;;11.02;96.32;101332.22;5065270;28;20056;-69
2021/10/07 01:23:25;;;;;;;0.95;0.95;;;;;;;11.02;96.58;101337.41;5065378;28;20539;-70
2021/10/07 01:25:50;;;;;;;0.30;0.30;;;;;;;11.01;96.41;101335.69;5083387;28;20393;-69
2021/10/07 01:28:16;;;;;;;0.65;0.55;;;;;;;10.99;96.49;101339.16;5083509;28;20534;-69
2021/10/07 01:30:42;;;;;;;0.50;0.50;;;;;;;11.00;96.24;101343.47;5083274;28;20032;-69
2021/10/07 01:33:07;;;;;;;0.30;0.30;;;;;;;11.01;96.18;101343.47;5083527;28;20027;-69
2021/10/07 01:35:33;;;;;;;0.30;0.30;;;;;;;10.95;96.33;101346.06;5083349;28;20555;-69
2021/10/07 01:37:58;;;;;;;0.38;0.38;;;;;;;10.98;96.08;101350.38;5083339;28;20024;-69
2021/10/07 01:40:24;;;;;;;0.30;0.30;;;;;;;10.97;96.04;101353.84;5083404;28;20036;-69
2021/10/07 01:42:49;;;;;;;0.30;0.30;;;;;;;10.94;96.21;101354.72;5083128;28;20084;-69
2021/10/07 01:45:15;;;;;;;0.30;0.30;;;;;;;10.93;96.17;101352.97;5083194;28;20046;-69
2021/10/07 01:47:40;;;;;;;0.30;0.30;;;;;;;10.94;96.01;101366.81;5083121;28;20035;-69
2021/10/07 01:50:08;;;;;;;0.30;0.30;;;;;;;10.91;96.39;101376.34;5083338;28;20032;-69
2021/10/07 01:52:34;;;;;;;0.20;0.20;;;;;;;10.90;96.31;101372.00;5083239;28;20043;-69
2021/10/07 01:54:59;;;;;;;0.30;0.30;;;;;;;10.87;96.15;101371.09;5083096;28;20021;-69
2021/10/07 01:57:24;;;;;;;0.20;0.20;;;;;;;10.85;96.03;101376.31;5065048;28;20031;-68
2021/10/07 01:59:50;;;;;;;1.15;1.05;;;;;;;10.86;95.77;101375.44;5082892;28;20028;-68
2021/10/07 02:02:15;;;;;;;0.40;0.40;;;;;;;10.87;95.93;101377.19;5065124;28;20539;-68
2021/10/07 02:04:40;;;;;;;0.30;0.30;;;;;;;10.82;96.23;101378.88;5083064;28;20020;-69
2021/10/07 02:07:06;;;;;;;0.30;0.30;;;;;;;10.83;96.20;101383.19;5083236;28;20462;-68
2021/10/07 02:09:31;;;;;;;0.30;0.30;;;;;;;10.83;95.84;101391.00;5082502;28;20032;-68
2021/10/07 02:11:57;;;;;;;0.22;0.22;;;;;;;10.82;95.99;101394.47;5083071;28;20360;-68
2021/10/07 02:14:24;;;;;;;0.32;0.32;;;;;;;10.79;95.86;101386.66;5082684;28;20070;-68
2021/10/07 02:16:49;;;;;;;0.50;0.50;;;;;;;10.81;95.60;101389.25;5083142;28;20013;-68
2021/10/07 02:19:15;;;;;;;0.75;0.75;;;;;;;10.81;95.74;101395.34;5082937;28;20063;-68
2021/10/07 02:21:40;;;;;;;0.77;0.77;;;;;;;10.80;95.93;101390.13;5082637;28;20492;-67
2021/10/07 02:24:06;;;;;;;0.32;0.32;;;;;;;10.84;95.84;101402.25;5082763;28;20028;-68
2021/10/07 02:26:31;;;;;;;0.30;0.30;;;;;;;10.82;95.69;101403.97;5082849;28;20024;-68
2021/10/07 02:28:56;;;;;;;0.20;0.20;;;;;;;10.81;95.76;101405.72;5084508;28;20028;-68
2021/10/07 02:31:22;;;;;;;0.30;0.30;;;;;;;10.84;95.65;101407.47;5086792;28;20092;-68
2021/10/07 02:33:49;;;;;;;0.20;0.20;;;;;;;10.85;95.49;101411.78;5086672;28;20024;-67
2021/10/07 02:36:15;;;;;;;0.38;0.38;;;;;;;10.78;95.55;101406.56;5086630;28;20028;-67
2021/10/07 02:38:40;;;;;;;0.20;0.20;;;;;;;10.81;95.55;101408.31;5086487;28;20032;-68
2021/10/07 02:41:05;;;;;;;0.20;0.20;;;;;;;10.82;95.43;101407.44;5086626;28;20035;-67
2021/10/07 02:43:31;;;;;;;0.30;0.30;;;;;;;10.82;95.58;101406.56;5086427;28;20083;-68
2021/10/07 02:45:57;;;;;;;0.30;0.30;;;;;;;10.80;95.32;101421.31;5086333;28;20478;-68
2021/10/07 02:48:22;;;;;;;0.30;0.30;;;;;;;10.80;95.48;101418.69;5086608;28;20434;-68
2021/10/07 02:50:47;;;;;;;0.22;0.22;;;;;;;10.86;95.19;101419.59;5086297;28;20025;-68
2021/10/07 02:53:13;;;;;;;0.63;0.63;;;;;;;10.86;95.29;101419.59;5086522;28;20057;-68
2021/10/07 02:55:38;;;;;;;0.30;0.30;;;;;;;10.85;95.48;101433.44;5086068;28;20440;-68
2021/10/07 02:58:03;;;;;;;0.30;0.30;;;;;;;10.82;95.19;101433.44;5086265;28;20024;-68
2021/10/07 03:00:29;;;;;;;0.30;0.30;;;;;;;10.78;95.52;101434.28;5086463;28;20020;-69
2021/10/07 03:02:54;;;;;;;0.30;0.30;;;;;;;10.75;95.38;101442.06;5086251;28;20322;-68
2021/10/07 03:05:20;;;;;;;0.30;0.30;;;;;;;10.75;95.02;101442.06;5086023;28;20043;-68
2021/10/07 03:07:45;;;;;;;0.30;0.30;;;;;;;10.71;95.30;101443.75;5086073;28;20027;-68
2021/10/07 03:10:11;;;;;;;0.35;0.35;;;;;;;10.72;95.28;101452.41;5085858;28;20024;-68
2021/10/07 03:12:36;;;;;;;0.40;0.40;;;;;;;10.70;95.23;101459.31;5085905;28;20036;-68
2021/10/07 03:15:02;;;;;;;0.30;0.30;;;;;;;10.71;95.06;101461.03;5085988;28;20051;-68
2021/10/07 03:17:28;;;;;;;1.52;1.48;;;;;;;10.69;95.23;101457.59;5085901;28;20020;-68
2021/10/07 03:19:53;;;;;;;1.75;1.48;;;;;;;10.69;95.01;101465.38;5085765;28;20051;-69
2021/10/07 03:22:21;;;;;;;0.40;0.40;;;;;;;10.65;94.88;101465.31;5085641;28;20056;-68
2021/10/07 03:24:46;;;;;;;0.30;0.30;;;;;;;10.63;94.71;101464.47;5085455;28;20029;-68
2021/10/07 03:27:12;;;;;;;0.30;0.30;;;;;;;10.65;94.69;101467.91;5085834;28;20435;-67
2021/10/07 03:29:37;;;;;;;0.30;0.30;;;;;;;10.63;94.78;101468.78;5085856;28;20017;-68
2021/10/07 03:32:03;;;;;;;0.30;0.30;;;;;;;10.63;94.88;101468.78;5085714;28;20098;-68
2021/10/07 03:34:29;;;;;;;0.30;0.30;;;;;;;10.64;95.09;101476.56;5085692;28;20068;-69
2021/10/07 03:36:54;;;;;;;0.30;0.30;;;;;;;10.64;94.85;101479.19;5085524;28;20035;-68
2021/10/07 03:39:20;;;;;;;0.20;0.20;;;;;;;10.64;95.05;101470.50;5085143;28;20038;-68
2021/10/07 03:41:45;;;;;;;0.30;0.30;;;;;;;10.62;95.16;101470.50;5084710;28;20024;-68
2021/10/07 03:44:10;;;;;;;0.73;0.73;;;;;;;10.65;95.01;101467.91;5085111;28;20055;-68
2021/10/07 03:46:36;;;;;;;0.30;0.30;;;;;;;10.69;95.15;101480.97;5085137;28;20141;-68
2021/10/07 03:49:02;;;;;;;0.30;0.30;;;;;;;10.70;95.28;101477.50;5085280;28;20021;-68
2021/10/07 03:51:28;;;;;;;0.30;0.30;;;;;;;10.69;95.47;101491.34;5084960;28;20093;-68
2021/10/07 03:53:53;;;;;;;0.30;0.30;;;;;;;10.68;95.40;101485.28;5084950;28;20067;-68
2021/10/07 03:56:19;;;;;;;0.43;0.43;;;;;;;10.64;95.38;101486.97;5085160;28;20170;-68
2021/10/07 03:58:44;;;;;;;0.40;0.40;;;;;;;10.64;95.14;101496.47;5085017;28;20024;-69
2021/10/07 04:01:10;;;;;;;0.30;0.30;;;;;;;10.61;95.02;101497.31;5066907;28;20036;-68
2021/10/07 04:03:35;;;;;;;0.30;0.30;;;;;;;10.62;95.44;101506.84;5084929;28;20046;-68
2021/10/07 04:06:01;;;;;;;0.60;0.60;;;;;;;10.59;95.42;101499.03;5084759;28;20017;-67
2021/10/07 04:08:26;;;;;;;0.30;0.30;;;;;;;10.56;95.25;101499.00;5085098;28;20363;-68
2021/10/07 04:10:52;;;;;;;0.52;0.52;;;;;;;10.65;95.07;101509.47;5066676;28;20028;-67
2021/10/07 04:13:22;;;;;;;0.63;0.63;;;;;;;10.68;95.11;101512.97;5084586;28;20023;-68
2021/10/07 04:15:49;;;;;;;0.30;0.30;;;;;;;10.65;95.08;101501.69;5084503;28;20468;-68
2021/10/07 04:18:16;;;;;;;0.30;0.30;;;;;;;10.70;95.22;101511.25;5084760;28;20032;-67
2021/10/07 04:20:43;;;;;;;0.30;0.30;;;;;;;10.63;95.22;101508.59;5084334;28;20051;-67
2021/10/07 04:23:09;;;;;;;0.68;0.68;;;;;;;10.58;94.85;101499.91;5084681;28;20025;-68
2021/10/07 04:25:35;;;;;;;0.20;0.20;;;;;;;10.52;95.15;101511.09;5084546;28;20055;-68
2021/10/07 04:28:02;;;;;;;0.30;0.30;;;;;;;10.46;94.55;101524.03;5084551;28;20024;-67
2021/10/07 04:30:27;;;;;;;0.30;0.30;;;;;;;10.39;94.63;101523.06;5084506;28;20021;-67
2021/10/07 04:32:53;;;;;;;0.30;0.30;;;;;;;10.35;94.82;101526.47;5084711;28;20017;-68
2021/10/07 04:35:19;;;;;;;0.30;0.30;;;;;;;10.30;94.99;101535.94;5084244;28;20029;-68
2021/10/07 04:37:44;;;;;;;0.30;0.30;;;;;;;10.32;94.77;101536.81;5084213;28;20495;-69
2021/10/07 04:40:10;;;;;;;0.30;0.30;;;;;;;10.31;94.72;101539.38;5084054;28;20035;-68
2021/10/07 04:42:35;;;;;;;0.30;0.30;;;;;;;10.34;94.84;101550.69;5084221;28;20036;-68
2021/10/07 04:45:02;;;;;;;0.20;0.20;;;;;;;10.35;94.92;101547.22;5084024;28;20082;-68
2021/10/07 04:47:28;;;;;;;0.30;0.30;;;;;;;10.35;95.24;101554.16;5084247;28;20103;-68
2021/10/07 04:49:55;;;;;;;0.20;0.20;;;;;;;10.35;95.03;101561.94;5083857;28;20057;-68
2021/10/07 04:52:20;;;;;;;0.88;0.88;;;;;;;10.31;94.99;101560.16;5083674;28;20107;-68
2021/10/07 04:54:45;;;;;;;0.30;0.30;;;;;;;10.31;94.78;101561.03;5083569;28;20020;-68
2021/10/07 04:57:11;;;;;;;0.40;0.40;;;;;;;10.36;94.78;101576.66;5083424;28;20513;-67
2021/10/07 04:59:36;;;;;;;0.88;0.88;;;;;;;10.38;95.22;101570.63;5083905;28;20058;-68
2021/10/07 05:02:02;;;;;;;0.30;0.30;;;;;;;10.41;95.07;101569.81;5084218;28;20029;-68
2021/10/07 05:04:27;;;;;;;0.28;0.28;;;;;;;10.43;95.36;101575.91;5083722;28;20395;-68
2021/10/07 05:06:52;;;;;;;0.30;0.30;;;;;;;10.48;94.83;101578.56;5065699;28;20032;-67
2021/10/07 05:09:18;;;;;;;0.50;0.50;;;;;;;10.50;94.83;101580.31;5083445;28;20031;-67
2021/10/07 05:11:43;;;;;;;1.48;1.48;;;;;;;10.54;95.29;101584.69;5083532;28;20031;-67
2021/10/07 05:14:08;;;;;;;0.30;0.30;;;;;;;10.57;95.08;101595.97;5083804;28;20020;-67
2021/10/07 05:16:34;;;;;;;0.30;0.30;;;;;;;10.58;95.41;101588.19;5065709;28;20046;-67
2021/10/07 05:18:59;;;;;;;0.75;0.75;;;;;;;10.57;95.08;101583.88;5083897;28;20042;-69
2021/10/07 05:21:24;;;;;;;0.30;0.30;;;;;;;10.56;95.18;101586.44;5083432;28;20353;-68
2021/10/07 05:23:50;;;;;;;0.85;0.85;;;;;;;10.54;94.68;101589.03;5083326;28;20488;-67
2021/10/07 05:26:15;;;;;;;0.30;0.30;;;;;;;10.52;94.96;101593.31;5083630;28;20090;-67
2021/10/07 05:28:44;;;;;;;0.60;0.60;;;;;;;10.50;94.67;101590.69;5083696;28;20016;-67
2021/10/07 05:31:09;;;;;;;0.30;0.30;;;;;;;10.49;94.65;101588.97;5083600;28;20024;-69
2021/10/07 05:33:35;;;;;;;0.30;0.30;;;;;;;10.46;94.47;101593.22;5083465;28;20042;-69
2021/10/07 05:36:00;;;;;;;1.05;1.05;;;;;;;10.37;94.41;101588.78;5083225;28;20038;-67
2021/10/07 05:38:25;;;;;;;0.60;0.60;;;;;;;10.37;94.07;101605.22;5083347;28;20082;-68
2021/10/07 05:40:51;;;;;;;1.42;1.42;;;;;;;10.29;94.24;101606.84;5083220;28;20024;-68
2021/10/07 05:43:16;;;;;;;0.93;0.93;;;;;;;10.25;94.50;101610.28;5083395;28;20329;-68
2021/10/07 05:45:42;;;;;;;0.30;0.30;;;;;;;10.24;94.54;101627.56;5083039;28;20020;-68
2021/10/07 05:48:07;;;;;;;1.17;0.73;;;;;;;10.25;94.98;101624.13;5083235;28;20031;-68
2021/10/07 05:50:33;;;;;;;0.30;0.30;;;;;;;10.26;95.05;101630.19;5083280;28;20025;-68
2021/10/07 05:52:58;;;;;;;0.30;0.30;;;;;;;10.31;95.14;101632.84;5083227;28;20032;-68
2021/10/07 05:55:24;;;;;;;0.30;0.30;;;;;;;10.36;95.33;101636.38;5083039;28;20048;-68
2021/10/07 05:57:49;;;;;;;0.30;0.30;;;;;;;10.44;95.37;101644.25;5083353;28;20120;-68
2021/10/07 06:00:15;;;;;;;0.38;0.38;;;;;;;10.50;95.85;101646.94;5083120;28;20067;-68
2021/10/07 06:02:40;;;;;;;0.30;0.30;;;;;;;10.59;95.85;101649.66;5083347;28;20024;-68
2021/10/07 06:05:08;;;;;;;0.65;0.65;;;;;;;10.70;95.77;101639.41;5086991;28;20073;-68
2021/10/07 06:07:34;;;;;;;0.20;0.20;;;;;;;10.77;95.76;101646.41;5087285;28;20389;-68
2021/10/07 06:09:59;;;;;;;0.35;0.35;;;;;;;10.87;95.75;101643.88;5087078;28;20055;-68
2021/10/07 06:12:25;;;;;;;0.60;0.60;;;;;;;10.93;95.87;101648.28;5087202;28;20303;-67
2021/10/07 06:14:50;;;;;;;0.30;0.30;;;;;;;11.00;96.08;101644.88;5087119;28;20024;-67
2021/10/07 06:17:16;;;;;;;0.25;0.25;;;;;;;11.07;96.04;101661.41;5087194;28;20025;-68
2021/10/07 06:19:44;;;;;;;0.30;0.30;;;;;;;11.10;95.69;101664.91;5086926;28;20013;-68
2021/10/07 06:22:09;;;;;;;0.30;0.30;;;;;;;11.13;96.05;101667.53;5086789;28;20056;-69
2021/10/07 06:24:35;;;;;;;0.45;0.45;;;;;;;11.19;96.02;101671.94;5086471;28;20021;-67
2021/10/07 06:27:01;;;;;;;0.85;0.85;;;;;;;11.30;96.18;101681.53;5087103;28;20020;-68
2021/10/07 06:29:27;;;;;;;0.20;0.20;;;;;;;11.36;96.07;101690.28;5086751;28;20090;-68
2021/10/07 06:31:53;;;;;;;1.42;1.35;;;;;;;11.43;96.19;101686.00;5087052;28;20092;-69
2021/10/07 06:34:18;;;;;;;0.30;0.30;;;;;;;11.52;96.12;101693.00;5086754;28;20016;-69
2021/10/07 06:36:43;;;;;;;0.40;0.40;;;;;;;11.59;96.19;101697.41;5086801;28;20486;-68
2021/10/07 06:39:09;;;;;;;0.20;0.20;;;;;;;11.63;96.27;101699.16;5086608;28;20024;-68
2021/10/07 06:41:35;;;;;;;0.30;0.30;;;;;;;11.71;96.31;101691.41;5086803;28;20017;-67
2021/10/07 06:44:01;;;;;;;0.30;0.30;;;;;;;11.82;95.99;101701.06;5102288;28;20017;-68
2021/10/07 06:46:27;;;;;;;0.50;0.50;;;;;;;11.85;96.43;101703.69;5086700;28;20035;-69
2021/10/07 06:48:55;;;;;;;0.30;0.30;;;;;;;11.90;96.59;101700.22;5086443;28;20031;-68
2021/10/07 06:51:25;;;;;;;0.30;0.30;;;;;;;11.97;96.41;101702.88;5086642;28;20437;-68
2021/10/07 06:53:53;;;;;;;0.40;0.40;;;;;;;11.98;95.96;101702.03;5086464;28;20028;-68
2021/10/07 06:56:20;;;;;;;0.30;0.30;;;;;;;11.99;95.98;101701.16;5086434;28;20031;-68
2021/10/07 06:58:47;;;;;;;0.30;0.30;;;;;;;12.02;96.19;101702.06;5086536;28;20175;-68
2021/10/07 07:01:12;;;;;;;0.30;0.30;;;;;;;12.06;96.29;101705.53;5086358;28;20476;-68
2021/10/07 07:03:38;;;;;;;1.00;1.00;;;;;;;12.11;96.36;101706.47;5086302;28;20149;-67
2021/10/07 07:06:03;;;;;;;0.47;0.47;;;;;;;12.21;96.09;101711.72;5086035;28;20504;-68
2021/10/07 07:08:28;;;;;;;0.25;0.25;;;;;;;12.29;96.37;101712.66;5086074;28;20021;-67
2021/10/07 07:10:54;;;;;;;0.30;0.30;;;;;;;12.44;96.82;101711.88;5086030;28;20122;-69
2021/10/07 07:13:19;;;;;;;1.75;1.65;;;;;;;12.63;96.43;101715.44;5086123;28;20021;-68
2021/10/07 07:15:45;;;;;;;0.52;0.52;;;;;;;12.82;96.86;101709.41;5085852;28;20134;-68
2021/10/07 07:18:10;;;;;;;0.40;0.40;;;;;;;12.98;96.72;101710.31;5086044;28;20060;-68
2021/10/07 07:20:35;;;;;;;0.40;0.40;;;;;;;13.16;96.82;101716.44;5085694;28;20058;-68
2021/10/07 07:23:01;;;;;;;1.45;1.38;;;;;;;13.38;96.96;101719.94;5085958;28;20047;-68
2021/10/07 07:25:26;;;;;;;0.60;0.60;;;;;;;13.53;97.37;101724.31;5085706;28;20088;-68
2021/10/07 07:27:51;;;;;;;0.30;0.30;;;;;;;13.88;97.88;101731.28;5085937;28;20021;-68
2021/10/07 07:30:17;;;;;;;0.22;0.22;;;;;;;14.30;98.78;101734.69;5085965;28;20051;-67
2021/10/07 07:32:43;;;;;;;0.60;0.60;;;;;;;14.60;98.27;101738.94;5085929;28;20032;-68
2021/10/07 07:35:09;;;;;;;0.20;0.20;;;;;;;14.87;96.19;101736.25;5085666;28;20021;-68
2021/10/07 07:37:34;;;;;;;0.20;0.20;;;;;;;15.16;94.82;101735.19;5085780;28;20028;-68
2021/10/07 07:39:59;;;;;;;0.20;0.20;;;;;;;15.46;94.68;101742.88;5085538;28;20033;-68
2021/10/07 07:42:24;;;;;;;0.28;0.28;;;;;;;15.78;94.91;101748.72;5085591;28;20064;-67
2021/10/07 07:44:50;;;;;;;0.20;0.20;;;;;;;16.00;96.37;101748.53;5085654;28;20032;-68
2021/10/07 07:47:16;;;;;;;0.25;0.25;;;;;;;16.00;95.77;101753.78;5085674;28;20024;-68
2021/10/07 07:49:41;;;;;;;0.20;0.20;;;;;;;16.02;93.59;101759.88;5085573;28;20073;-68
2021/10/07 07:52:07;;;;;;;0.30;0.30;;;;;;;16.09;92.29;101758.94;5085575;28;20021;-68
2021/10/07 07:54:33;;;;;;;0.82;0.82;;;;;;;16.02;92.72;101759.88;5085448;28;20031;-68
2021/10/07 07:56:58;;;;;;;0.28;0.28;;;;;;;15.82;90.05;101753.91;5085427;28;20024;-68
2021/10/07 07:59:24;;;;;;;0.20;0.20;;;;;;;15.75;89.69;101752.22;5085393;28;20080;-68
2021/10/07 08:01:49;;;;;;;0.20;0.20;;;;;;;15.73;88.50;101764.47;5085213;28;20031;-68
2021/10/07 08:04:15;;;;;;;0.90;0.90;;;;;;;15.63;86.84;101762.78;5085410;28;20027;-68
2021/10/07 08:06:40;;;;;;;0.38;0.38;;;;;;;15.53;86.47;101764.63;5085078;28;20032;-69
2021/10/07 08:09:06;;;;;;;0.20;0.20;;;;;;;15.60;87.85;101767.19;5084976;28;20014;-69
2021/10/07 08:11:37;;;;;;;0.20;0.20;;;;;;;15.74;88.56;101768.81;5085234;28;20051;-69
2021/10/07 08:14:03;;;;;;;0.30;0.30;;;;;;;15.97;87.39;101767.75;5085093;28;20154;-69
2021/10/07 08:16:29;;;;;;;1.42;1.33;;;;;;;16.30;85.88;101773.56;5067013;28;20033;-68
2021/10/07 08:18:55;;;;;;;0.20;0.20;;;;;;;16.70;85.21;101777.50;5067015;28;20341;-68
2021/10/07 08:21:20;;;;;;;0.20;0.20;;;;;;;17.18;86.03;101772.53;5085023;28;20475;-69
2021/10/07 08:23:48;;;;;;;0.30;0.30;;;;;;;17.72;85.51;101773.47;5067575;28;20032;-69
2021/10/07 08:26:13;;;;;;;1.20;1.15;;;;;;;18.08;83.93;101786.84;5084388;28;20021;-69
2021/10/07 08:28:38;;;;;;;1.05;0.85;;;;;;;18.45;80.07;101785.31;5084909;28;20025;-69
2021/10/07 08:31:04;;;;;;;0.40;0.40;;;;;;;18.54;80.68;101786.03;5084766;28;20020;-69
2021/10/07 08:33:29;;;;;;;0.52;0.52;;;;;;;18.94;82.42;101786.97;5084718;28;20022;-69
2021/10/07 08:35:55;;;;;;;0.20;0.20;;;;;;;19.25;80.62;101783.69;5066560;28;20024;-68
2021/10/07 08:38:20;;;;;;;0.45;0.45;;;;;;;19.56;81.26;101776.84;5084501;28;20450;-69
2021/10/07 08:40:46;;;;;;;0.50;0.50;;;;;;;19.62;76.34;101783.69;5084207;28;20191;-68
2021/10/07 08:43:11;;;;;;;0.15;0.15;;;;;;;19.48;75.91;101778.78;5084418;28;20020;-69
2021/10/07 08:45:37;;;;;;;0.28;0.28;;;;;;;19.50;73.12;101780.50;5084207;28;20084;-68
2021/10/07 08:48:03;;;;;;;0.60;0.60;;;;;;;19.17;73.79;101790.91;5084402;28;20110;-68
2021/10/07 08:50:28;;;;;;;0.43;0.43;;;;;;;18.64;73.50;101792.00;5084281;28;20031;-69
2021/10/07 08:52:53;;;;;;;0.35;0.35;;;;;;;18.36;74.25;101793.38;5084363;28;20310;-69
2021/10/07 08:55:19;;;;;;;0.30;0.30;;;;;;;18.43;77.53;101802.03;5084154;28;20055;-69
2021/10/07 08:57:45;;;;;;;0.20;0.20;;;;;;;18.49;77.08;101801.91;5084147;28;20035;-68
2021/10/07 09:00:13;;;;;;;0.20;0.20;;;;;;;18.16;77.37;101801.66;5084008;28;20032;-69
2021/10/07 09:02:39;;;;;;;0.60;0.60;;;;;;;17.83;76.98;101796.91;5084096;28;20028;-68
2021/10/07 09:05:15;;;;;;;0.13;0.13;;;;;;;17.55;76.23;101808.75;5083908;28;20275;-68
2021/10/07 09:08:04;;;;;;;0.20;0.20;;;;;;;17.36;76.60;101805.53;5084053;28;20023;-68
2021/10/07 09:10:51;;;;;;;0.25;0.25;;;;;;;17.31;77.75;101808.22;5083881;28;20051;-69
2021/10/07 09:13:23;;;;;;;0.20;0.20;;;;;;;17.46;76.92;101815.00;5083873;28;20384;-69
2021/10/07 09:15:51;;;;;;;1.00;1.00;;;;;;;17.57;76.16;101813.97;5083977;28;20027;-69
2021/10/07 09:18:19;;;;;;;3.03;1.65;;;;;;;17.71;74.66;101809.38;5083846;28;20086;-68
2021/10/07 09:20:47;;;;;;;0.20;0.20;;;;;;;17.91;76.82;101817.78;5083886;28;20041;-69
2021/10/07 09:23:18;;;;;;;1.02;0.43;;;;;;;18.19;76.63;101817.38;5065949;28;20040;-69
2021/10/07 09:26:07;;;;;;;0.20;0.20;;;;;;;18.15;74.84;101810.41;5083581;28;20054;-68
2021/10/07 09:28:58;;;;;;;0.20;0.20;;;;;;;17.95;73.95;101817.75;5083841;28;20050;-68
2021/10/07 09:31:34;;;;;;;0.20;0.20;;;;;;;17.88;74.06;101817.84;5083734;28;20030;-69
2021/10/07 09:34:06;;;;;;;0.20;0.20;;;;;;;18.18;75.03;101828.75;5083598;28;20091;-69
2021/10/07 09:36:33;;;;;;;0.60;0.60;;;;;;;18.39;70.10;101838.03;5083591;28;20029;-69
2021/10/07 09:39:01;;;;;;;0.20;0.20;;;;;;;18.49;70.25;101830.84;5082662;28;20032;-69
2021/10/07 09:41:32;;;;;;;0.95;0.95;;;;;;;18.53;68.53;101840.38;5083509;28;20051;-69
2021/10/07 09:44:00;;;;;;;0.20;0.20;;;;;;;18.69;71.88;101845.38;5083580;28;20051;-68
2021/10/07 09:46:45;;;;;;;0.10;0.10;;;;;;;18.97;71.50;101842.19;5083353;28;20021;-69
2021/10/07 09:49:14;;;;;;;0.20;0.20;;;;;;;19.29;71.26;101850.31;5065475;28;20035;-69
2021/10/07 09:51:42;;;;;;;0.20;0.20;;;;;;;18.95;69.78;101839.56;5083535;28;20476;-69
2021/10/07 09:54:09;;;;;;;0.20;0.20;;;;;;;18.60;69.59;101841.16;5083515;28;20554;-68
2021/10/07 09:56:35;;;;;;;0.30;0.30;;;;;;;18.86;69.34;101846.78;5083206;28;20031;-69
2021/10/07 09:59:09;;;;;;;0.20;0.20;;;;;;;19.07;69.66;101850.75;5083193;28;20047;-68
2021/10/07 10:01:37;;;;;;;1.73;1.63;;;;;;;19.29;67.81;101847.69;5083326;28;20065;-68
2021/10/07 10:04:02;;;;;;;0.35;0.35;;;;;;;19.46;66.95;101847.28;5083286;28;20448;-69
2021/10/07 10:06:28;;;;;;;0.32;0.32;;;;;;;19.49;66.84;101851.63;5083210;28;20021;-68
2021/10/07 10:08:53;;;;;;;0.20;0.20;;;;;;;19.29;67.61;101855.56;5083368;28;20016;-69
2021/10/07 10:11:20;;;;;;;0.20;0.20;;;;;;;18.76;67.75;101854.88;5083025;28;20029;-68
2021/10/07 10:13:49;;;;;;;0.43;0.43;;;;;;;18.38;69.62;101859.97;5083362;28;20044;-68
2021/10/07 10:16:16;;;;;;;0.20;0.20;;;;;;;18.35;71.11;101867.03;5083242;28;20025;-68
2021/10/07 10:18:45;;;;;;;0.20;0.20;;;;;;;18.32;72.17;101860.06;5083078;28;20119;-68
2021/10/07 10:21:12;;;;;;;0.20;0.20;;;;;;;18.73;73.14;101872.47;5083074;28;20288;-68
2021/10/07 10:23:38;;;;;;;0.20;0.20;;;;;;;18.60;69.44;101875.34;5082944;28;20028;-70
2021/10/07 10:26:09;;;;;;;0.20;0.20;;;;;;;18.11;71.87;101871.78;5083091;28;20024;-69
2021/10/07 10:28:46;;;;;;;0.30;0.30;;;;;;;18.19;71.56;101889.22;5083064;28;20413;-69
2021/10/07 10:31:14;;;;;;;2.17;2.05;;;;;;;18.20;73.68;101890.06;5083310;28;20044;-68
2021/10/07 10:33:45;;;;;;;0.20;0.20;;;;;;;18.11;74.51;101892.81;5083065;28;20107;-67
2021/10/07 10:36:27;;;;;;;0.22;0.22;;;;;;;18.32;71.52;101892.47;5083119;28;20017;-68
2021/10/07 10:39:10;;;;;;;0.20;0.20;;;;;;;18.63;72.17;101893.69;5064922;28;20043;-68
2021/10/07 10:42:03;;;;;;;0.20;0.20;;;;;;;18.94;72.30;101892.25;5083223;28;20020;-68
2021/10/07 10:44:47;;;;;;;0.20;0.20;;;;;;;19.20;73.88;101899.63;5081244;28;20036;-69
2021/10/07 10:47:12;;;;;;;0.20;0.20;;;;;;;18.99;72.36;101902.66;5082858;28;20077;-68
2021/10/07 10:50:17;;;;;;;0.20;0.20;;;;;;;18.96;71.90;101906.25;5084100;28;20044;-68
2021/10/07 10:52:52;;;;;;;0.20;0.20;;;;;;;18.63;71.15;101903.34;5084328;28;20036;-68
2021/10/07 10:55:22;;;;;;;0.38;0.35;;;;;;;18.28;70.94;101898.69;5086361;28;20020;-68
2021/10/07 10:58:08;;;;;;;0.20;0.20;;;;;;;18.26;70.56;101904.88;5086552;28;20048;-68
2021/10/07 11:00:35;;;;;;;7.80;4.97;;;;;;;18.43;68.64;101912.47;5085787;28;20036;-69
2021/10/07 11:03:17;;;;;;;9.82;7.50;;;;;;;18.56;66.85;101908.72;5086226;28;20436;-69
2021/10/07 11:06:01;;;;;;;;;;;;;;;18.25;68.57;101916.25;5086709;28;20021;-69
2021/10/07 11:08:28;;;;;;;9.57;6.78;;;;;;;18.21;69.08;101913.69;5068383;28;19916;-68
2021/10/07 11:10:55;;;;;;;8.93;6.43;;;;;;;17.89;70.67;101917.66;5086158;28;20024;-68
2021/10/07 11:13:22;;;;;;;12.38;7.30;;;;;;;17.54;70.01;101924.31;5086522;28;20388;-68
2021/10/07 11:15:53;;;;;;;9.13;7.22;;;;;;;17.19;71.41;101915.97;5086164;28;20020;-68
2021/10/07 11:18:19;;;;;;;8.90;7.57;;;;;;;16.91;72.37;101921.50;5086537;28;20020;-68
2021/10/07 11:20:44;;;;;;;12.35;7.75;;;;;;;16.85;74.12;101923.28;5085817;28;20075;-69
2021/10/07 11:23:16;;;;;;;9.50;7.40;;;;;;;16.79;75.05;101923.38;5085774;28;20027;-68
2021/10/07 11:25:45;;;;;;;11.65;7.68;;;;;;;16.68;75.06;101925.22;5085722;28;20085;-67
2021/10/07 11:28:11;;;;;;;10.70;7.22;;;;;;;16.38;74.17;101922.88;5085793;28;20064;-69
2021/10/07 11:30:39;;;;;;;10.05;6.38;;;;;;;16.21;74.94;101926.50;5067707;28;20020;-68
2021/10/07 11:33:05;;;;;;;9.48;4.97;;;;;;;16.03;73.97;101930.13;5085776;28;20021;-68